N323FL LOWI-LOWS

Flight info

Callsign N323FL
Flight time 0h 26m
Altitude 15000
Route UNKEN2J UNKEN UNKEN2R
Aircraft TBM9/L-SBDFGRY/S

Departure

Time 2026-05-04 16:44
Airport Innsbruck Airport (LOWI)

Arrival

Time 2026-05-04 17:11
Airport Salzburg Airport (LOWS)
Time Latitude Longitude Altitude Speed Heading
2026-05-04 16:26 47.25870 11.35367 1896 ft 0 kts 261°
2026-05-04 16:39 47.25893 11.35252 1900 ft 12 kts 298°
2026-05-04 16:39 47.25862 11.34923 1899 ft 21 kts 259°
2026-05-04 16:40 47.25809 11.34418 1902 ft 29 kts 260°
2026-05-04 16:40 47.25812 11.33875 1902 ft 13 kts 305°
2026-05-04 16:41 47.25818 11.33863 1899 ft 0 kts 304°
2026-05-04 16:41 47.25873 11.33736 1892 ft 14 kts 305°
2026-05-04 16:42 47.25840 11.33173 1901 ft 25 kts 259°
2026-05-04 16:43 47.25885 11.33148 1901 ft 9 kts 81°
2026-05-04 16:43 47.26026 11.34396 1994 ft 120 kts 91°
2026-05-04 16:43 47.26151 11.35803 2269 ft 156 kts 91°
2026-05-04 16:44 47.27025 11.43805 3728 ft 228 kts 71°
2026-05-04 16:45 47.28232 11.47959 4846 ft 218 kts 71°
2026-05-04 16:46 47.30017 11.54490 5893 ft 238 kts 72°
2026-05-04 16:46 47.31188 11.59095 6581 ft 244 kts 74°
2026-05-04 16:47 47.32440 11.63769 7254 ft 246 kts 72°
2026-05-04 16:47 47.33795 11.68481 7941 ft 251 kts 70°
2026-05-04 16:48 47.35912 11.75532 9002 ft 252 kts 69°
2026-05-04 16:48 47.36635 11.77869 9342 ft 254 kts 70°
2026-05-04 16:49 47.38258 11.82531 10018 ft 254 kts 62°
2026-05-04 16:49 47.40144 11.86950 10695 ft 256 kts 60°
2026-05-04 16:50 47.42001 11.91438 11393 ft 258 kts 61°
2026-05-04 16:50 47.44107 11.95758 12067 ft 262 kts 49°
2026-05-04 16:51 47.46536 11.99797 12783 ft 264 kts 50°
2026-05-04 16:51 47.47750 12.01843 13145 ft 265 kts 50°
2026-05-04 16:51 47.50205 12.05949 13864 ft 267 kts 50°
2026-05-04 16:52 47.52668 12.10088 14517 ft 268 kts 50°
2026-05-04 16:52 47.53903 12.12162 14855 ft 269 kts 50°
2026-05-04 16:53 47.56453 12.16470 14911 ft 289 kts 50°
2026-05-04 16:53 47.60415 12.23138 14906 ft 288 kts 51°
2026-05-04 16:54 47.61738 12.25380 14898 ft 288 kts 51°
2026-05-04 16:55 47.67018 12.34317 13597 ft 287 kts 51°
2026-05-04 16:55 47.69634 12.38762 12797 ft 284 kts 51°
2026-05-04 16:56 47.72208 12.43138 12028 ft 280 kts 51°
2026-05-04 16:56 47.76027 12.49643 10921 ft 276 kts 51°
2026-05-04 16:57 47.77285 12.51788 10547 ft 274 kts 51°
2026-05-04 16:57 47.79760 12.56007 9812 ft 268 kts 52°
2026-05-04 16:58 47.83465 12.62187 8655 ft 265 kts 49°
2026-05-04 16:58 47.84683 12.64156 8269 ft 247 kts 50°
2026-05-04 16:59 47.86877 12.67786 7511 ft 229 kts 50°
2026-05-04 17:00 47.91025 12.74547 6039 ft 216 kts 48°
2026-05-04 17:00 47.94079 12.79359 4933 ft 207 kts 49°
2026-05-04 17:01 47.96027 12.82391 4178 ft 199 kts 48°
2026-05-04 17:01 47.97920 12.85301 3989 ft 190 kts 50°
2026-05-04 17:02 47.99373 12.87767 3986 ft 190 kts 51°
2026-05-04 17:02 48.01266 12.90477 3975 ft 191 kts 34°
2026-05-04 17:03 48.02385 12.91530 3981 ft 190 kts 35°
2026-05-04 17:03 48.03858 12.92930 3979 ft 189 kts 35°
2026-05-04 17:03 48.05721 12.94643 3999 ft 189 kts 26°
2026-05-04 17:04 48.08138 12.93641 4004 ft 198 kts 309°
2026-05-04 17:04 48.08153 12.89782 4004 ft 197 kts 232°
2026-05-04 17:05 48.05733 12.88529 4004 ft 190 kts 173°
2026-05-04 17:05 48.03100 12.89015 4007 ft 191 kts 171°
2026-05-04 17:06 48.00468 12.89542 4014 ft 191 kts 171°
2026-05-04 17:06 47.99146 12.89809 4012 ft 192 kts 171°
2026-05-04 17:07 47.96451 12.90343 4021 ft 202 kts 172°
2026-05-04 17:07 47.95522 12.90480 4028 ft 203 kts 174°
2026-05-04 17:07 47.93710 12.91093 4010 ft 200 kts 158°
2026-05-04 17:07 47.92436 12.91912 4051 ft 200 kts 154°
2026-05-04 17:08 47.91129 12.92789 3735 ft 208 kts 156°
2026-05-04 17:08 47.88503 12.94471 3136 ft 201 kts 155°
2026-05-04 17:08 47.87223 12.95332 2812 ft 202 kts 155°
2026-05-04 17:09 47.85951 12.96175 2639 ft 197 kts 156°
2026-05-04 17:09 47.84688 12.96953 2430 ft 199 kts 156°
2026-05-04 17:09 47.83452 12.97728 2118 ft 179 kts 155°
2026-05-04 17:10 47.81683 12.98909 1716 ft 100 kts 155°
2026-05-04 17:10 47.79758 13.00128 1415 ft 73 kts 158°
2026-05-04 17:11 47.79445 13.00319 1422 ft 20 kts 179°
2026-05-04 17:11 47.79385 13.00162 1418 ft 11 kts 247°
2026-05-04 17:11 47.79420 13.00074 1417 ft 18 kts 337°
2026-05-04 17:12 47.79539 12.99996 1418 ft 19 kts 324°
2026-05-04 17:12 47.79520 12.99816 1417 ft 2 kts 336°
2026-05-04 17:13 47.79527 12.99812 1417 ft 0 kts 335°